KBIV

Details ICAO KBIV (BIV)
Name TULIP CITY
Region United States
Timezone America/Detroit (UTC-4.0)
Plans Departing 9
Arriving 6
Stats Elevation 698 ft / 213 m (AMSL)
Location 42.742846° -86.107351°
Runways 1
Magnetic Variation 5.305° W
Sunrise 2018-05-27 10:13:13 UTC / 2018-05-27 06:13:13 Local
Sunset 2018-05-28 01:12:53 UTC / 2018-05-27 21:12:53 Local
Advertisement - Login to hide

Runways

ID Width Length Bearing (true) Bearing (mag) Surface Threshold Offset Overrun Length
08 100 ft / 30 m 6,249 ft / 1,905 m 79.67° 84.97° Asphalt 1,840 ft / 561 m 0 ft / 0 m
26 100 ft / 30 m 6,249 ft / 1,905 m 259.68° 264.98° Asphalt 0 ft / 0 m 0 ft / 0 m

Map

Weather


0- 5 10 15 20 25 30 35+ Temperature / ° C

Clouds and Precipitation
Forecast for 2018-05-27 12:00 UTC. Updated 5 hours ago

Ground ~20,000 ft ~40,000 ft Winds

METAR

KBIV 271453Z AUTO 23003KT 10SM CLR 28/18 A2988 RMK AO2 SLP113 T02830183 50007

TAF

Not found

Frequencies

Recorded 119.02 MHz ASOS
Clearance 123.95 MHz MUSKEGON CLNC DEL
Unicom 123.05 MHz CTAF/UNICOM
Approach 119.80 MHz MUSKEGON APP/DEP
Warning: Do not use this data for real-world aviation or navigation. No guarantee of current accuracy is given.